Terminal Aerodrome Forecast
Issued by NWS Omaha/Valley, NE

Home | Current Version | Previous Version | Graphics & Text | Print | Product List | Glossary On
Versions: 1 2 3 4 5 6 7 8 9 10 11 12 13 14 15 16
000
FTUS43 KOAX 302349
TAFOFK
TAF
KOFK 302349Z 0100/0124 05014G20KT 3SM -RA OVC008
      TEMPO 0100/0104 2SM -DZ BR OVC006
     FM010400 03014G20KT 2SM -RA BR OVC006
     FM011500 01015G20KT 4SM -RA BR OVC015
     FM011900 01013G20KT P6SM OVC030=

USA.gov is the U.S. government's official web portal to all federal, state and local government web resources and services.